createdAt,value
2023-02-05T00:02:14.981Z,30.17
2023-02-05T00:04:42.157Z,32.90
2023-02-05T00:07:09.528Z,31.15
2023-02-05T00:09:36.501Z,34.92
2023-02-05T00:12:05.044Z,39.08
2023-02-05T00:14:32.272Z,25.27
2023-02-05T00:17:00.557Z,31.70
2023-02-05T00:19:27.700Z,33.90
2023-02-05T00:21:57.030Z,27.58
2023-02-05T00:24:24.108Z,25.63
2023-02-05T00:26:51.503Z,29.15
2023-02-05T00:29:18.361Z,35.63
2023-02-05T00:31:45.368Z,31.35
2023-02-05T00:34:14.003Z,33.05
2023-02-05T00:36:40.807Z,30.85
2023-02-05T00:39:07.878Z,30.67
2023-02-05T00:41:35.474Z,28.20
2023-02-05T00:44:02.297Z,42.25
2023-02-05T00:46:30.865Z,39.88
2023-02-05T00:48:58.018Z,43.30
2023-02-05T00:51:26.358Z,33.13
2023-02-05T00:53:53.034Z,30.08
2023-02-05T00:56:19.943Z,35.38
2023-02-05T00:58:48.020Z,36.42
2023-02-05T01:01:16.569Z,35.33
2023-02-05T01:03:44.062Z,44.15
2023-02-05T01:06:11.179Z,29.95
2023-02-05T01:08:39.281Z,32.75
2023-02-05T01:11:07.620Z,32.35
2023-02-05T01:13:34.743Z,37.00
2023-02-05T01:16:01.672Z,34.75
2023-02-05T01:18:28.671Z,40.65
2023-02-05T01:20:55.560Z,35.50
2023-02-05T01:23:22.665Z,35.70
2023-02-05T01:25:50.999Z,34.63
2023-02-05T01:28:18.379Z,40.05
2023-02-05T01:30:49.979Z,46.63
2023-02-05T01:33:17.971Z,47.20
2023-02-05T01:35:45.373Z,52.00
2023-02-05T01:38:12.216Z,34.00
2023-02-05T01:40:39.399Z,34.50
2023-02-05T01:43:12.222Z,46.45
2023-02-05T01:45:55.403Z,43.50
2023-02-05T01:48:27.951Z,50.40
2023-02-05T01:51:01.887Z,41.55
2023-02-05T01:53:31.639Z,42.92
2023-02-05T01:56:03.463Z,41.10
2023-02-05T01:58:36.882Z,42.08
2023-02-05T02:01:03.861Z,37.78
2023-02-05T02:03:31.980Z,38.55
2023-02-05T02:05:59.043Z,40.67
2023-02-05T02:08:25.985Z,41.88
2023-02-05T02:10:56.598Z,48.80
2023-02-05T02:13:29.095Z,34.95
2023-02-05T02:15:57.903Z,54.05
2023-02-05T02:18:26.677Z,48.15
2023-02-05T02:21:18.412Z,53.10
2023-02-05T02:24:00.608Z,50.50
2023-02-05T02:26:46.980Z,41.83
2023-02-05T02:29:22.120Z,61.70
2023-02-05T02:31:57.186Z,52.53
2023-02-05T02:34:30.383Z,56.42
2023-02-05T02:37:01.320Z,49.88
2023-02-05T02:39:32.791Z,57.88
2023-02-05T02:42:05.226Z,64.53
2023-02-05T02:44:43.407Z,73.38
2023-02-05T02:47:16.215Z,70.30
2023-02-05T02:49:47.866Z,73.82
2023-02-05T02:52:18.941Z,79.10
2023-02-05T02:54:48.739Z,69.43
2023-02-05T02:57:17.652Z,76.05
2023-02-05T02:59:48.237Z,75.53
2023-02-05T03:02:16.487Z,78.55
2023-02-05T03:04:48.061Z,72.95
2023-02-05T03:07:19.491Z,71.45
2023-02-05T03:09:52.637Z,72.10
2023-02-05T03:12:20.125Z,66.03
2023-02-05T03:14:49.174Z,63.50
2023-02-05T03:17:16.416Z,68.63
2023-02-05T03:19:43.340Z,80.15
2023-02-05T03:22:10.254Z,66.03
2023-02-05T03:24:38.232Z,62.00
2023-02-05T03:27:05.460Z,76.70
2023-02-05T03:29:34.998Z,61.17
2023-02-05T03:32:14.680Z,58.35
2023-02-05T03:34:51.178Z,57.03
2023-02-05T03:37:28.298Z,54.13
2023-02-05T03:40:07.285Z,60.30
2023-02-05T03:42:42.293Z,47.20
2023-02-05T03:45:33.520Z,56.83
2023-02-05T03:48:25.754Z,42.25
2023-02-05T03:50:59.776Z,43.22
2023-02-05T03:53:37.070Z,42.85
2023-02-05T03:56:06.644Z,45.58
2023-02-05T03:58:39.495Z,36.53
2023-02-05T04:01:07.954Z,33.88
2023-02-05T04:03:36.286Z,35.53
2023-02-05T04:06:03.403Z,33.97
2023-02-05T04:08:33.078Z,30.55
2023-02-05T04:11:00.405Z,32.45
2023-02-05T04:13:30.768Z,28.30
2023-02-05T04:15:57.525Z,28.17
2023-02-05T04:18:24.629Z,28.35
2023-02-05T04:20:53.086Z,21.48
2023-02-05T04:23:19.934Z,24.52
2023-02-05T04:25:46.891Z,18.33
2023-02-05T04:28:14.471Z,22.73
2023-02-05T04:30:43.623Z,17.80
2023-02-05T04:33:11.485Z,21.80
2023-02-05T04:35:40.344Z,15.88
2023-02-05T04:38:11.804Z,22.67
2023-02-05T04:40:38.588Z,16.48
2023-02-05T04:43:05.735Z,12.75
2023-02-05T04:45:32.689Z,20.75
2023-02-05T04:48:00.418Z,16.13
2023-02-05T04:50:27.454Z,11.25
2023-02-05T04:52:54.616Z,13.13
2023-02-05T04:55:23.388Z,14.70
2023-02-05T04:57:52.540Z,5.93
2023-02-05T05:00:19.752Z,8.77
2023-02-05T05:02:46.984Z,15.68
2023-02-05T05:05:13.881Z,11.38
2023-02-05T05:07:43.162Z,20.25
2023-02-05T05:10:13.761Z,6.53
2023-02-05T05:12:45.026Z,7.63
2023-02-05T05:15:11.855Z,10.30
2023-02-05T05:17:38.806Z,13.13
2023-02-05T05:20:06.530Z,11.75
2023-02-05T05:22:33.997Z,16.27
2023-02-05T05:25:01.979Z,12.60
2023-02-05T05:27:31.524Z,13.80
2023-02-05T05:29:59.910Z,13.90
2023-02-05T05:32:28.111Z,18.92
2023-02-05T05:34:55.018Z,12.02
2023-02-05T05:37:21.897Z,19.20
2023-02-05T05:39:48.754Z,13.70
2023-02-05T05:42:15.628Z,17.25
2023-02-05T05:44:44.706Z,13.73
2023-02-05T05:47:14.025Z,12.23
2023-02-05T05:49:41.968Z,10.70
2023-02-05T05:52:08.842Z,11.35
2023-02-05T05:54:36.273Z,5.93
2023-02-05T05:57:07.675Z,11.43
2023-02-05T06:02:04.206Z,11.25
2023-02-05T06:04:34.769Z,12.05
2023-02-05T06:07:01.624Z,10.43
2023-02-05T06:09:28.565Z,13.50
2023-02-05T06:11:56.040Z,14.27
2023-02-05T06:14:22.916Z,12.93
2023-02-05T06:16:49.942Z,17.88
2023-02-05T06:19:17.118Z,23.25
2023-02-05T06:21:47.922Z,19.25
2023-02-05T06:24:15.815Z,13.27
2023-02-05T06:26:42.751Z,14.02
2023-02-05T06:29:10.986Z,19.98
2023-02-05T06:31:38.504Z,19.90
2023-02-05T06:34:05.723Z,13.27
2023-02-05T06:36:33.015Z,16.45
2023-02-05T06:39:01.491Z,21.02
2023-02-05T06:41:28.296Z,16.60
2023-02-05T06:43:55.499Z,19.65
2023-02-05T06:46:23.655Z,11.23
2023-02-05T06:48:52.248Z,19.90
2023-02-05T06:51:19.541Z,18.05
2023-02-05T06:53:51.413Z,17.20
2023-02-05T06:56:21.343Z,17.42
2023-02-05T06:58:48.163Z,18.38
2023-02-05T07:01:14.965Z,11.35
2023-02-05T07:03:44.277Z,20.17
2023-02-05T07:06:11.532Z,14.25
2023-02-05T07:08:40.958Z,21.05
2023-02-05T07:11:07.838Z,18.80
2023-02-05T07:13:39.579Z,20.40
2023-02-05T07:16:08.055Z,23.02
2023-02-05T07:18:35.973Z,17.92
2023-02-05T07:21:05.928Z,20.98
2023-02-05T07:23:36.185Z,24.13
2023-02-05T07:26:07.888Z,22.35
2023-02-05T07:28:36.494Z,30.08
2023-02-05T07:31:06.396Z,22.85
2023-02-05T07:33:33.580Z,24.10
2023-02-05T07:36:03.111Z,24.90
2023-02-05T07:38:30.005Z,28.33
2023-02-05T07:40:57.048Z,16.85
2023-02-05T07:43:23.892Z,21.55
2023-02-05T07:45:57.497Z,14.88
2023-02-05T07:48:24.789Z,15.13
2023-02-05T07:50:51.694Z,22.92
2023-02-05T07:53:22.796Z,14.23
2023-02-05T07:55:49.887Z,17.23
2023-02-05T07:58:16.859Z,13.48
2023-02-05T08:00:44.042Z,20.67
2023-02-05T08:03:12.836Z,22.10
2023-02-05T08:05:40.937Z,22.08
2023-02-05T08:08:08.133Z,15.43
2023-02-05T08:10:35.298Z,20.85
2023-02-05T08:13:02.107Z,27.88
2023-02-05T08:15:28.913Z,20.60
2023-02-05T08:17:55.849Z,19.73
2023-02-05T08:20:24.346Z,20.30
2023-02-05T08:22:51.131Z,22.88
2023-02-05T08:25:17.991Z,24.73
2023-02-05T08:27:45.203Z,25.55
2023-02-05T08:30:15.017Z,21.63
2023-02-05T08:32:47.898Z,31.73
2023-02-05T08:35:14.729Z,23.27
2023-02-05T08:37:42.976Z,34.55
2023-02-05T08:40:11.087Z,21.65
2023-02-05T08:42:38.219Z,25.88
2023-02-05T08:45:05.509Z,34.00
2023-02-05T08:47:32.219Z,37.75
2023-02-05T08:50:00.645Z,32.70
2023-02-05T08:52:27.594Z,22.58
2023-02-05T08:54:56.180Z,31.90
2023-02-05T08:57:26.655Z,29.23
2023-02-05T08:59:54.181Z,31.47
2023-02-05T09:02:21.605Z,41.17
2023-02-05T09:04:50.287Z,52.65
2023-02-05T09:07:18.317Z,34.92
2023-02-05T09:09:45.328Z,26.35
2023-02-05T09:12:15.184Z,32.58
2023-02-05T09:14:42.058Z,32.42
2023-02-05T09:17:10.443Z,33.42
2023-02-05T09:19:39.027Z,30.75
2023-02-05T09:22:09.686Z,31.42
2023-02-05T09:24:37.835Z,44.42
2023-02-05T09:27:06.631Z,39.85
2023-02-05T09:29:36.551Z,35.95
2023-02-05T09:32:03.955Z,29.52
2023-02-05T09:34:33.613Z,37.08
2023-02-05T09:37:01.327Z,42.83
2023-02-05T09:40:17.237Z,35.28
2023-02-05T09:42:29.359Z,24.17
2023-02-05T09:45:12.489Z,42.38
2023-02-05T09:47:44.384Z,38.15
2023-02-05T09:50:17.921Z,41.72
2023-02-05T09:52:49.067Z,41.35
2023-02-05T09:55:24.082Z,44.17
2023-02-05T09:57:55.132Z,34.70
2023-02-05T10:00:28.738Z,37.15
2023-02-05T10:03:02.127Z,59.95
2023-02-05T10:05:36.823Z,39.90
2023-02-05T10:08:12.305Z,48.70
2023-02-05T10:10:44.272Z,51.00
2023-02-05T10:13:33.664Z,47.53
2023-02-05T10:16:34.110Z,38.17
2023-02-05T10:19:17.247Z,36.28
2023-02-05T10:22:01.867Z,45.58
2023-02-05T10:24:56.482Z,38.70
2023-02-05T10:27:32.815Z,49.40
2023-02-05T10:30:04.977Z,42.38
2023-02-05T10:32:42.883Z,34.75
2023-02-05T10:35:23.690Z,40.30
2023-02-05T10:37:53.242Z,47.97
2023-02-05T10:40:23.786Z,42.75
2023-02-05T10:42:57.819Z,46.00
2023-02-05T10:45:26.969Z,30.25
2023-02-05T10:48:18.101Z,49.42
2023-02-05T10:50:54.425Z,40.60
2023-02-05T10:53:23.677Z,37.85
2023-02-05T10:55:52.397Z,40.83
2023-02-05T10:58:33.336Z,43.78
2023-02-05T11:01:01.243Z,36.78
2023-02-05T11:03:28.174Z,44.20
2023-02-05T11:05:56.688Z,37.88
2023-02-05T11:08:37.300Z,33.05
2023-02-05T11:11:05.595Z,42.53
2023-02-05T11:13:33.908Z,34.30
2023-02-05T11:16:04.085Z,39.33
2023-02-05T11:18:36.052Z,34.40
2023-02-05T11:21:06.537Z,37.72
2023-02-05T11:23:34.040Z,44.90
2023-02-05T11:26:07.725Z,37.58
2023-02-05T11:28:37.864Z,31.13
2023-02-05T11:31:19.571Z,30.65
2023-02-05T11:33:46.630Z,31.40
2023-02-05T11:36:18.998Z,34.25
2023-02-05T11:38:48.096Z,33.28
2023-02-05T11:41:29.895Z,31.65
2023-02-05T11:44:03.365Z,43.17
2023-02-05T11:46:44.144Z,33.15
2023-02-05T11:49:20.876Z,31.88
2023-02-05T11:51:59.346Z,39.42
2023-02-05T11:54:32.542Z,28.40
2023-02-05T11:57:01.121Z,36.88
2023-02-05T11:59:29.230Z,32.92
2023-02-05T12:02:26.341Z,38.40
2023-02-05T12:04:57.922Z,38.10
2023-02-05T12:07:29.584Z,35.92
2023-02-05T12:09:56.375Z,28.80
2023-02-05T12:12:35.300Z,29.10
2023-02-05T12:15:11.983Z,32.08
2023-02-05T12:17:42.506Z,33.45
2023-02-05T12:20:23.600Z,27.60
2023-02-05T12:23:18.616Z,36.78
2023-02-05T12:26:02.636Z,31.77
2023-02-05T12:28:39.657Z,46.78
2023-02-05T12:31:24.821Z,35.88
2023-02-05T12:34:08.968Z,41.50
2023-02-05T12:36:51.122Z,41.25
2023-02-05T12:39:32.307Z,34.10
2023-02-05T12:42:10.427Z,44.53
2023-02-05T12:44:48.278Z,41.88
2023-02-05T12:47:26.682Z,34.65
2023-02-05T12:50:12.388Z,39.47
2023-02-05T12:52:54.291Z,29.92
2023-02-05T12:55:39.762Z,31.92
2023-02-05T12:58:10.787Z,34.90
2023-02-05T13:00:41.565Z,38.25
2023-02-05T13:03:22.141Z,24.90
2023-02-05T13:05:53.387Z,27.08
2023-02-05T13:08:31.803Z,36.90
2023-02-05T13:11:07.907Z,29.70
2023-02-05T13:13:45.768Z,35.67
2023-02-05T13:16:17.178Z,35.47
2023-02-05T13:21:18.118Z,33.58
2023-02-05T13:23:48.729Z,35.58
2023-02-05T13:26:34.717Z,33.38
2023-02-05T13:29:08.499Z,35.20
2023-02-05T13:31:40.017Z,30.75
2023-02-05T13:34:09.496Z,41.00
2023-02-05T13:37:16.533Z,30.58
2023-02-05T13:40:03.003Z,28.90
2023-02-05T13:42:54.508Z,27.05
2023-02-05T13:45:57.799Z,29.40
2023-02-05T13:48:56.697Z,35.85
2023-02-05T13:51:51.043Z,30.67
2023-02-05T13:54:55.618Z,39.53
2023-02-05T13:58:07.882Z,41.45
2023-02-05T14:00:35.855Z,28.90
2023-02-05T14:03:04.289Z,30.70
2023-02-05T14:05:34.714Z,30.17
2023-02-05T14:08:02.812Z,40.03
2023-02-05T14:10:31.612Z,40.53
2023-02-05T14:13:13.330Z,37.45
2023-02-05T14:15:42.649Z,34.17
2023-02-05T14:18:13.255Z,29.92
2023-02-05T14:20:41.595Z,32.40
2023-02-05T14:23:56.550Z,39.05
2023-02-05T14:26:44.400Z,35.47
2023-02-05T14:29:40.779Z,39.75
2023-02-05T14:32:10.211Z,28.70
2023-02-05T14:34:59.156Z,43.13
2023-02-05T14:37:33.562Z,36.35
2023-02-05T14:40:14.591Z,37.58
2023-02-05T14:42:42.938Z,48.83
2023-02-05T14:45:16.798Z,39.92
2023-02-05T14:47:44.914Z,39.65
2023-02-05T14:50:22.827Z,44.58
2023-02-05T14:52:53.994Z,46.75
2023-02-05T14:55:25.249Z,39.88
2023-02-05T14:57:54.394Z,49.33
2023-02-05T15:00:30.119Z,53.45
2023-02-05T15:03:26.136Z,40.92
2023-02-05T15:05:56.999Z,50.50
2023-02-05T15:08:36.870Z,59.42
2023-02-05T15:11:11.484Z,49.97
2023-02-05T15:13:38.610Z,43.47
2023-02-05T15:16:24.547Z,49.72
2023-02-05T15:18:55.021Z,53.13
2023-02-05T15:21:27.088Z,63.43
2023-02-05T15:24:01.090Z,57.70
2023-02-05T15:26:36.339Z,50.22
2023-02-05T15:29:06.493Z,52.63
2023-02-05T15:31:41.230Z,51.80
2023-02-05T15:34:33.173Z,51.83
2023-02-05T15:37:06.372Z,51.17
2023-02-05T15:39:46.463Z,39.45
2023-02-05T15:42:19.178Z,47.67
2023-02-05T15:44:45.959Z,56.40
2023-02-05T15:47:18.476Z,51.78
2023-02-05T15:49:48.310Z,48.80
2023-02-05T15:52:19.456Z,49.80
2023-02-05T15:54:46.654Z,42.65
2023-02-05T15:57:19.750Z,48.17
2023-02-05T15:59:47.002Z,50.85
2023-02-05T16:02:18.323Z,45.45
2023-02-05T16:07:21.239Z,40.25
2023-02-05T16:09:51.265Z,52.45
2023-02-05T16:12:27.581Z,46.08
2023-02-05T16:15:00.254Z,59.33
2023-02-05T16:17:39.586Z,52.42
2023-02-05T16:20:21.167Z,48.45
2023-02-05T16:22:53.144Z,52.20
2023-02-05T16:25:32.355Z,42.67
2023-02-05T16:28:00.997Z,47.67
2023-02-05T16:30:34.676Z,37.72
2023-02-05T16:33:06.825Z,45.90
2023-02-05T16:35:39.856Z,50.17
2023-02-05T16:38:15.059Z,50.58
2023-02-05T16:40:46.403Z,56.95
2023-02-05T16:46:33.256Z,50.92
2023-02-05T16:49:24.521Z,41.10
2023-02-05T16:51:55.663Z,46.58
2023-02-05T16:54:31.731Z,43.22
2023-02-05T16:57:03.616Z,41.92
2023-02-05T16:59:33.708Z,60.63
2023-02-05T17:02:01.132Z,52.60
2023-02-05T17:04:33.781Z,47.17
2023-02-05T17:07:05.627Z,51.90
2023-02-05T17:09:40.368Z,53.58
2023-02-05T17:12:37.273Z,62.53
2023-02-05T17:15:34.507Z,55.75
2023-02-05T17:18:22.721Z,66.18
2023-02-05T17:20:51.336Z,47.33
2023-02-05T17:23:18.370Z,45.92
2023-02-05T17:25:52.375Z,60.65
2023-02-05T17:28:21.949Z,53.75
2023-02-05T17:30:50.438Z,55.75
2023-02-05T17:33:20.532Z,59.78
2023-02-05T17:35:47.636Z,51.38
2023-02-05T17:38:16.829Z,54.22
2023-02-05T17:40:45.672Z,53.30
2023-02-05T17:43:12.889Z,54.88
2023-02-05T17:45:41.039Z,58.00
2023-02-05T17:48:09.240Z,61.95
2023-02-05T17:50:36.904Z,53.80
2023-02-05T17:53:04.173Z,50.75
2023-02-05T17:55:33.741Z,57.97
2023-02-05T17:58:00.594Z,49.53
2023-02-05T18:00:29.151Z,73.82
2023-02-05T18:02:56.357Z,62.50
2023-02-05T18:05:26.010Z,63.08
2023-02-05T18:07:56.048Z,65.20
2023-02-05T18:10:25.857Z,54.40
2023-02-05T18:12:55.377Z,64.82
2023-02-05T18:15:22.702Z,63.17
2023-02-05T18:17:52.384Z,56.67
2023-02-05T18:20:20.562Z,53.97
2023-02-05T18:22:47.518Z,65.30
2023-02-05T18:25:17.677Z,63.55
2023-02-05T18:27:44.982Z,59.40
2023-02-05T18:30:14.209Z,54.30
2023-02-05T18:32:41.287Z,51.90
2023-02-05T18:35:09.325Z,59.13
2023-02-05T18:37:37.226Z,65.50
2023-02-05T18:40:07.033Z,58.83
2023-02-05T18:42:34.240Z,57.83
2023-02-05T18:45:01.179Z,57.33
2023-02-05T18:47:29.559Z,60.53
2023-02-05T18:49:56.339Z,56.08
2023-02-05T18:52:23.166Z,59.58
2023-02-05T18:54:52.950Z,60.63
2023-02-05T18:57:20.498Z,64.97
2023-02-05T18:59:47.453Z,56.55
2023-02-05T19:02:16.092Z,64.60
2023-02-05T19:04:46.223Z,71.68
2023-02-05T19:07:13.693Z,61.08
2023-02-05T19:09:40.907Z,59.92
2023-02-05T19:12:11.423Z,73.22
2023-02-05T19:14:38.308Z,55.57
2023-02-05T19:17:05.383Z,65.18
2023-02-05T19:19:35.352Z,51.67
2023-02-05T19:22:26.218Z,57.60
2023-02-05T19:24:53.424Z,63.00
2023-02-05T19:27:20.860Z,44.92
2023-02-05T19:29:50.849Z,49.50
2023-02-05T19:32:18.429Z,55.42
2023-02-05T19:34:45.442Z,49.75
2023-02-05T19:37:12.611Z,50.85
2023-02-05T19:39:43.635Z,47.90
2023-02-05T19:42:10.710Z,57.60
2023-02-05T19:44:37.858Z,44.78
2023-02-05T19:47:05.202Z,50.53
2023-02-05T19:49:33.586Z,47.67
2023-02-05T19:52:00.710Z,54.25
2023-02-05T19:54:31.066Z,48.60
2023-02-05T19:57:00.533Z,59.00
2023-02-05T19:59:30.556Z,53.58
2023-02-05T20:01:57.909Z,55.47
2023-02-05T20:04:26.289Z,56.72
2023-02-05T20:06:56.635Z,46.28
2023-02-05T20:09:24.930Z,52.33
2023-02-05T20:11:53.387Z,41.22
2023-02-05T20:14:24.595Z,51.10
2023-02-05T20:16:51.924Z,44.05
2023-02-05T20:19:20.478Z,55.10
2023-02-05T20:21:48.428Z,49.85
2023-02-05T20:24:16.712Z,50.28
2023-02-05T20:26:47.994Z,59.22
2023-02-05T20:29:15.650Z,48.70
2023-02-05T20:31:48.333Z,50.08
2023-02-05T20:34:23.663Z,65.15
2023-02-05T20:36:55.100Z,49.13
2023-02-05T20:39:25.637Z,51.25
2023-02-05T20:41:53.080Z,59.40
2023-02-05T20:44:21.040Z,53.88
2023-02-05T20:46:50.058Z,61.10
2023-02-05T20:49:17.497Z,52.00
2023-02-05T20:51:44.308Z,60.50
2023-02-05T20:54:11.627Z,54.35
2023-02-05T20:56:41.273Z,50.92
2023-02-05T20:59:09.300Z,52.30
2023-02-05T21:01:37.716Z,58.13
2023-02-05T21:04:08.002Z,53.65
2023-02-05T21:06:36.593Z,45.33
2023-02-05T21:09:03.804Z,68.55
2023-02-05T21:11:31.127Z,52.80
2023-02-05T21:14:00.640Z,51.72
2023-02-05T21:16:28.282Z,55.92
2023-02-05T21:18:56.206Z,45.75
2023-02-05T21:21:26.199Z,58.80
2023-02-05T21:23:54.488Z,51.90
2023-02-05T21:26:26.240Z,53.95
2023-02-05T21:28:57.423Z,43.92
2023-02-05T21:31:25.749Z,55.60
2023-02-05T21:34:09.518Z,39.80
2023-02-05T21:36:54.289Z,42.55
2023-02-05T21:40:09.251Z,41.88
2023-02-05T21:42:41.103Z,51.03
2023-02-05T21:45:09.789Z,47.20
2023-02-05T21:47:36.943Z,59.85
2023-02-05T21:50:08.239Z,64.22
2023-02-05T21:55:25.072Z,64.80
2023-02-05T21:57:54.083Z,60.40
2023-02-05T22:00:21.486Z,54.95
2023-02-05T22:02:57.270Z,40.30
2023-02-05T22:05:26.889Z,50.88
2023-02-05T22:08:11.573Z,45.45
2023-02-05T22:10:41.734Z,48.70
2023-02-05T22:13:08.562Z,46.58
2023-02-05T22:15:37.086Z,49.80
2023-02-05T22:18:10.050Z,50.58
2023-02-05T22:20:42.266Z,44.70
2023-02-05T22:23:11.712Z,44.63
2023-02-05T22:25:49.280Z,45.08
2023-02-05T22:28:19.091Z,50.20
2023-02-05T22:30:49.173Z,44.58
2023-02-05T22:33:16.686Z,57.47
2023-02-05T22:35:44.684Z,44.58
2023-02-05T22:38:14.673Z,36.15
2023-02-05T22:40:41.516Z,51.90
2023-02-05T22:43:11.263Z,50.30
2023-02-05T22:45:41.291Z,41.28
2023-02-05T22:48:11.093Z,49.28
2023-02-05T22:50:41.685Z,56.20
2023-02-05T22:53:09.525Z,32.58
2023-02-05T22:55:43.336Z,32.30
2023-02-05T22:58:10.438Z,44.38
2023-02-05T23:00:39.541Z,51.45
2023-02-05T23:03:06.358Z,42.70
2023-02-05T23:05:34.477Z,44.47
2023-02-05T23:08:02.945Z,60.85
2023-02-05T23:10:30.466Z,45.42
2023-02-05T23:13:00.987Z,47.08
2023-02-05T23:15:27.966Z,51.95
2023-02-05T23:17:55.390Z,42.95
2023-02-05T23:20:22.810Z,43.80
2023-02-05T23:22:56.945Z,36.53
2023-02-05T23:25:28.624Z,37.67
2023-02-05T23:28:08.178Z,38.85
2023-02-05T23:30:36.682Z,43.53
2023-02-05T23:33:06.170Z,44.30
2023-02-05T23:35:43.563Z,41.67
2023-02-05T23:38:13.151Z,46.08
2023-02-05T23:40:40.333Z,51.17
2023-02-05T23:43:09.301Z,40.15
2023-02-05T23:45:43.791Z,35.88
2023-02-05T23:48:26.483Z,32.50
2023-02-05T23:50:54.766Z,29.48
2023-02-05T23:53:21.779Z,40.78
2023-02-05T23:55:51.209Z,33.05
2023-02-05T23:58:19.539Z,36.05
